Terminal Aerodrome Forecast
Issued by NWS

Home | Current Version | Previous Version | Text Only | Print | Product List | Glossary On
Versions: 1 2 3 4 5 6 7 8 9 10 11 12 13 14
000
FTUS41 KPBZ 281223 AAB
TAFLBE
TAF AMD
KLBE 281223Z 2812/2912 00000KT P6SM OVC015
     FM281400 27006KT P6SM OVC025
     FM281500 29006KT P6SM BKN035
     FM281600 31005KT P6SM BKN050=

USA.gov is the U.S. government's official web portal to all federal, state and local government web resources and services.